createdAt,value
2019-01-31T00:02:57.871Z,20.81
2019-01-31T00:08:12.692Z,20.82
2019-01-31T00:13:37.639Z,20.81
2019-01-31T00:18:53.120Z,20.80
2019-01-31T00:24:08.531Z,20.81
2019-01-31T00:29:36.075Z,20.81
2019-01-31T00:35:06.203Z,20.80
2019-01-31T00:40:15.449Z,20.80
2019-01-31T00:45:40.388Z,20.80
2019-01-31T00:50:49.922Z,20.79
2019-01-31T00:55:56.436Z,20.79
2019-01-31T01:01:15.098Z,20.78
2019-01-31T01:11:55.992Z,20.77
2019-01-31T01:17:13.790Z,20.76
2019-01-31T01:22:23.197Z,20.72
2019-01-31T01:27:49.388Z,20.71
2019-01-31T01:32:55.925Z,20.68
2019-01-31T01:38:20.683Z,20.65
2019-01-31T01:43:35.932Z,20.64
2019-01-31T01:48:54.208Z,20.64
2019-01-31T01:54:18.950Z,20.60
2019-01-31T01:59:46.306Z,20.62
2019-01-31T02:05:04.696Z,20.60
2019-01-31T02:10:17.322Z,20.59
2019-01-31T02:15:26.359Z,20.57
2019-01-31T02:21:00.012Z,20.57
2019-01-31T02:26:18.430Z,20.56
2019-01-31T02:31:27.396Z,20.56
2019-01-31T02:36:39.797Z,20.54
2019-01-31T02:42:01.402Z,20.53
2019-01-31T02:47:16.907Z,20.53
2019-01-31T02:52:49.034Z,20.53
2019-01-31T02:58:12.098Z,20.52
2019-01-31T03:03:21.589Z,20.52
2019-01-31T03:08:33.870Z,20.51
2019-01-31T03:13:43.296Z,20.50
2019-01-31T03:18:58.410Z,20.49
2019-01-31T03:24:16.999Z,20.50
2019-01-31T03:29:29.472Z,20.49
2019-01-31T03:34:54.174Z,20.49
2019-01-31T03:40:15.470Z,20.48
2019-01-31T03:45:42.934Z,20.48
2019-01-31T03:51:00.906Z,20.50
2019-01-31T03:56:16.469Z,20.51
2019-01-31T04:01:37.647Z,20.54
2019-01-31T04:06:41.119Z,20.55
2019-01-31T04:11:44.610Z,20.54
2019-01-31T04:16:48.086Z,20.55
2019-01-31T04:21:51.569Z,20.54
2019-01-31T04:26:55.061Z,20.54
2019-01-31T04:31:58.535Z,20.54
2019-01-31T04:37:02.018Z,20.53
2019-01-31T04:42:05.526Z,20.53
2019-01-31T04:47:08.993Z,20.52
2019-01-31T04:52:12.480Z,20.56
2019-01-31T04:57:15.961Z,20.56
2019-01-31T05:02:19.442Z,20.57
2019-01-31T05:07:22.927Z,20.58
2019-01-31T05:12:26.407Z,20.59
2019-01-31T05:17:29.885Z,20.59
2019-01-31T05:22:33.363Z,20.58
2019-01-31T05:27:36.851Z,20.57
2019-01-31T05:32:40.333Z,20.57
2019-01-31T05:37:43.819Z,20.58
2019-01-31T05:42:47.301Z,20.56
2019-01-31T05:47:50.782Z,20.56
2019-01-31T05:52:54.270Z,20.58
2019-01-31T05:57:57.751Z,20.58
2019-01-31T06:03:01.237Z,20.58
2019-01-31T06:08:04.897Z,20.59
2019-01-31T06:13:08.376Z,20.58
2019-01-31T06:18:11.906Z,20.58
2019-01-31T06:23:15.370Z,20.58
2019-01-31T06:28:18.837Z,20.58
2019-01-31T06:33:22.769Z,20.57
2019-01-31T06:38:26.233Z,20.56
2019-01-31T06:43:29.703Z,20.56
2019-01-31T06:48:34.091Z,20.54
2019-01-31T06:53:37.712Z,20.54
2019-01-31T06:58:41.349Z,20.53
2019-01-31T07:03:44.824Z,20.53
2019-01-31T07:08:48.291Z,20.52
2019-01-31T07:13:51.756Z,20.50
2019-01-31T07:18:55.233Z,20.50
2019-01-31T07:23:58.693Z,20.49
2019-01-31T07:29:02.528Z,20.48
2019-01-31T07:34:06.009Z,20.49
2019-01-31T07:39:09.612Z,20.51
2019-01-31T07:44:13.078Z,20.52
2019-01-31T07:49:16.613Z,20.55
2019-01-31T07:54:20.079Z,20.54
2019-01-31T07:59:23.553Z,20.55
2019-01-31T08:04:27.017Z,20.14
2019-01-31T08:09:30.481Z,19.60
2019-01-31T08:14:33.948Z,19.66
2019-01-31T08:19:37.419Z,19.82
2019-01-31T08:24:40.885Z,19.95
2019-01-31T08:29:44.352Z,20.02
2019-01-31T08:34:47.812Z,20.07
2019-01-31T08:39:51.287Z,20.12
2019-01-31T08:44:54.753Z,20.17
2019-01-31T08:49:58.220Z,20.20
2019-01-31T08:55:01.687Z,20.24
2019-01-31T09:00:11.849Z,20.25
2019-01-31T09:05:15.653Z,20.28
2019-01-31T09:10:30.629Z,20.30
2019-01-31T09:15:34.095Z,20.31
2019-01-31T09:20:40.610Z,20.32
2019-01-31T09:26:14.191Z,20.33
2019-01-31T09:31:23.255Z,20.26
2019-01-31T09:36:50.918Z,20.26
2019-01-31T09:42:03.313Z,20.35
2019-01-31T09:47:18.853Z,20.34
2019-01-31T09:52:41.591Z,20.36
2019-01-31T09:57:56.811Z,20.36
2019-01-31T10:03:24.565Z,20.35
2019-01-31T10:08:33.802Z,20.37
2019-01-31T10:14:13.221Z,20.39
2019-01-31T10:19:46.677Z,20.42
2019-01-31T10:25:16.479Z,20.45
2019-01-31T10:30:40.342Z,20.45
2019-01-31T10:36:15.284Z,19.94
2019-01-31T10:41:47.716Z,19.66
2019-01-31T10:46:57.099Z,19.70
2019-01-31T10:52:03.611Z,19.85
2019-01-31T10:57:36.194Z,19.90
2019-01-31T11:02:57.591Z,19.96
2019-01-31T11:08:25.066Z,20.03
2019-01-31T11:13:39.940Z,20.08
2019-01-31T11:19:12.466Z,20.13
2019-01-31T11:24:19.325Z,20.17
2019-01-31T11:29:28.704Z,20.20
2019-01-31T11:34:58.303Z,20.24
2019-01-31T11:40:19.687Z,20.26
2019-01-31T11:45:32.009Z,20.30
2019-01-31T11:50:53.803Z,20.33
2019-01-31T11:56:09.195Z,20.38
2019-01-31T12:01:12.833Z,20.41
2019-01-31T12:06:16.372Z,20.45
2019-01-31T12:11:19.835Z,20.47
2019-01-31T12:16:23.348Z,20.52
2019-01-31T12:21:26.841Z,20.53
2019-01-31T12:26:30.294Z,20.55
2019-01-31T12:31:33.830Z,20.57
2019-01-31T12:36:37.302Z,20.60
2019-01-31T12:41:40.766Z,20.53
2019-01-31T12:46:44.307Z,20.53
2019-01-31T12:51:47.773Z,20.67
2019-01-31T12:56:51.245Z,20.69
2019-01-31T13:01:54.710Z,20.70
2019-01-31T13:06:58.254Z,20.71
2019-01-31T13:12:01.716Z,20.72
2019-01-31T13:17:07.029Z,20.75
2019-01-31T13:22:10.495Z,20.76
2019-01-31T13:27:14.000Z,20.76
2019-01-31T13:32:17.464Z,20.77
2019-01-31T13:37:20.928Z,20.78
2019-01-31T13:42:24.399Z,20.79
2019-01-31T13:47:27.874Z,20.81
2019-01-31T13:52:31.339Z,20.84
2019-01-31T13:57:34.796Z,20.85
2019-01-31T14:02:38.265Z,20.85
2019-01-31T14:07:41.799Z,20.85
2019-01-31T14:12:46.122Z,20.86
2019-01-31T14:17:49.587Z,20.87
2019-01-31T14:22:53.392Z,20.88
2019-01-31T14:27:56.860Z,20.89
2019-01-31T14:33:01.035Z,20.90
2019-01-31T14:38:05.042Z,20.88
2019-01-31T14:43:08.500Z,20.89
2019-01-31T14:48:11.964Z,20.88
2019-01-31T14:53:15.487Z,20.88
2019-01-31T14:58:20.023Z,20.88
2019-01-31T15:03:23.603Z,20.87
2019-01-31T15:08:27.073Z,20.87
2019-01-31T15:13:30.563Z,20.87
2019-01-31T15:18:34.034Z,20.84
2019-01-31T15:23:37.495Z,20.87
2019-01-31T15:28:40.970Z,20.92
2019-01-31T15:33:44.437Z,20.97
2019-01-31T15:38:47.972Z,21.02
2019-01-31T15:43:51.435Z,21.04
2019-01-31T15:48:54.900Z,21.07
2019-01-31T15:53:58.369Z,21.11
2019-01-31T15:59:01.942Z,21.14
2019-01-31T16:04:05.566Z,21.17
2019-01-31T16:09:09.295Z,21.19
2019-01-31T16:14:12.795Z,21.20
2019-01-31T16:19:16.816Z,21.19
2019-01-31T16:24:20.287Z,21.19
2019-01-31T16:29:23.902Z,21.20
2019-01-31T16:34:28.126Z,21.20
2019-01-31T16:39:31.677Z,21.15
2019-01-31T16:44:35.136Z,21.19
2019-01-31T16:49:38.608Z,21.19
2019-01-31T16:54:42.151Z,21.16
2019-01-31T16:59:45.611Z,21.16
2019-01-31T17:04:49.149Z,21.18
2019-01-31T17:09:52.614Z,21.19
2019-01-31T17:14:56.105Z,21.21
2019-01-31T17:19:59.642Z,21.23
2019-01-31T17:25:03.516Z,21.22
2019-01-31T17:30:12.995Z,21.25
2019-01-31T17:35:16.701Z,21.26
2019-01-31T17:40:23.210Z,21.28
2019-01-31T17:45:30.354Z,21.30
2019-01-31T17:50:32.130Z,21.30
2019-01-31T17:55:35.593Z,21.31
2019-01-31T18:00:48.069Z,21.33
2019-01-31T18:05:51.773Z,21.33
2019-01-31T18:10:55.320Z,21.33
2019-01-31T18:15:59.035Z,21.32
2019-01-31T18:21:02.574Z,21.31
2019-01-31T18:26:06.380Z,21.32
2019-01-31T18:31:09.849Z,21.32
2019-01-31T18:36:13.316Z,21.30
2019-01-31T18:41:16.921Z,21.30
2019-01-31T18:46:21.246Z,21.31
2019-01-31T18:51:25.293Z,21.29
2019-01-31T18:56:29.501Z,21.29
2019-01-31T19:01:33.638Z,21.28
2019-01-31T19:06:37.870Z,21.27
2019-01-31T19:11:41.698Z,21.26
2019-01-31T19:16:45.741Z,21.26
2019-01-31T19:21:49.850Z,21.24
2019-01-31T19:26:54.086Z,21.24
2019-01-31T19:31:58.616Z,21.23
2019-01-31T19:37:03.428Z,21.23
2019-01-31T19:42:07.597Z,21.21
2019-01-31T19:47:12.139Z,21.21
2019-01-31T19:52:16.573Z,21.20
2019-01-31T19:57:20.709Z,21.19
2019-01-31T20:02:25.241Z,21.18
2019-01-31T20:07:29.985Z,21.18
2019-01-31T20:12:34.761Z,21.17
2019-01-31T20:17:39.291Z,21.17
2019-01-31T20:22:43.917Z,21.17
2019-01-31T20:27:48.864Z,21.17
2019-01-31T20:32:53.809Z,21.16
2019-01-31T20:37:58.152Z,21.15
2019-01-31T20:43:03.062Z,21.14
2019-01-31T20:48:07.634Z,21.16
2019-01-31T20:53:12.451Z,21.14
2019-01-31T20:58:17.323Z,21.14
2019-01-31T21:03:24.707Z,21.13
2019-01-31T21:08:27.953Z,21.12
2019-01-31T21:13:32.295Z,21.12
2019-01-31T21:18:36.619Z,21.11
2019-01-31T21:23:40.445Z,21.10
2019-01-31T21:28:44.052Z,21.09
2019-01-31T21:33:47.511Z,21.09
2019-01-31T21:38:52.755Z,21.08
2019-01-31T21:43:56.225Z,21.08
2019-01-31T21:48:59.688Z,21.07
2019-01-31T21:54:03.297Z,21.07
2019-01-31T21:59:08.947Z,21.05
2019-01-31T22:04:12.156Z,21.05
2019-01-31T22:09:15.628Z,21.05
2019-01-31T22:14:19.164Z,21.04
2019-01-31T22:19:22.628Z,21.03
2019-01-31T22:24:26.096Z,21.02
2019-01-31T22:29:29.567Z,21.01
2019-01-31T22:34:33.106Z,21.01
2019-01-31T22:39:36.647Z,21.01
2019-01-31T22:44:40.109Z,20.98
2019-01-31T22:49:43.579Z,20.99
2019-01-31T22:54:47.128Z,20.99
2019-01-31T22:59:50.597Z,20.97
2019-01-31T23:04:54.064Z,20.97
2019-01-31T23:09:57.535Z,20.96
2019-01-31T23:15:01.011Z,20.96
2019-01-31T23:20:07.832Z,20.94
2019-01-31T23:25:11.467Z,20.93
2019-01-31T23:30:16.370Z,20.92
2019-01-31T23:35:19.833Z,20.92
2019-01-31T23:40:23.298Z,20.91
2019-01-31T23:45:26.761Z,20.90
2019-01-31T23:50:30.223Z,20.90
2019-01-31T23:55:33.689Z,20.89
